Avon, Minnesota
Current Conditions -  °F | °C
As of 6:34 PM on Sunday 21 Dec 2014 (Local Time) from KSTC Reporting Station
Haze Haze  
Wind Chill: -2°   Ceiling: 200
Heat Index:   Visibility: 1mi
Dew Point:   Wind: 13mph
Humidity: 89%   Direction: 160°SSE
Pressure: 29.69"   Gusts: NA
Location:  45.61°N, 94.45°W
Report Text: KSTC 220034Z 16011KT 1SM BR OVC002 03/01 A2969 RMK AO2 T00280011
Loading
Personal Weather Stations






























Interactive Weather Map New forecast layout! Learn more

10-Day Weather Forecast

Advertisements
Track Severe Weather on mobile